Terminal Aerodrome Forecast
Issued by NWS

Home | Current Version | Previous Version | Graphics & Text | Print | Product List | Glossary On
Versions: 1 2 3 4 5 6 7 8 9 10 11 12 13 14 15 16 17 18 19
000
FTUS43 KLSX 291140
TAFSUS
TAF
KSUS 291140Z 2912/3012 00000KT P6SM SCT040 BKN150
     FM291400 17007KT P6SM SCT050 BKN150
     FM292200 17008KT P6SM VCTS SCT050CB BKN120
     FM300200 VRB05KT P6SM SCT050 BKN100=

USA.gov is the U.S. government's official web portal to all federal, state and local government web resources and services.